»·PEaware :: N1939W S36-KORS

N1939W :: S36-KORS

FLIGHT INFORMATION

Flight Status: Arrived
Operator: Privately registered:
United States
More flights under this callsign
Pilot: Ralph F. (3863)
Aircraft: BEECH AIRCRAFT BARON
(BE58)
More flights by this aircraft type
Origin: S36 Norman Grier Field
United States
Destination: KORS Orcas Island
United States
More flights between these airports :: More routes between these airports
Route:
File this flight plan on PilotEdge
Remarks: WASHINGTON ALPHABET CHALLENGE 14
Altitude:
(Current/Filed)
4,500ft
Speed:
(Current/Filed)
170kts
Departed: 26-Sep-20 09:18 AM
Arrived: 26-Sep-20 10:02 AM
Distance/Time
Traveled:
88nm/0:44
Distance/Time
To Go:
Arrived

Flight Plot

Page will automatically refresh every two minutes.

Flight plan parsing failed; only flown route is shown


Map Options




Map Legend


Flown Route
Filed Route
Departure Airport
Arrival Airport
Navaid (VOR, NDB)
Fix

Horizontal Profiles

Position Reports

Time Latitude Longitude Heading Altitude Ground
Speed
26-Sep-20 09:04 47.340171 -122.103769 171 475ft 0kts
26-Sep-20 09:05 47.340171 -122.103769 171 475ft 0kts
26-Sep-20 09:06 47.340171 -122.103769 171 475ft 0kts
26-Sep-20 09:07 47.340171 -122.103769 171 475ft 0kts
26-Sep-20 09:08 47.340171 -122.103769 171 475ft 0kts
26-Sep-20 09:09 47.340171 -122.103769 171 475ft 0kts
26-Sep-20 09:10 47.340171 -122.103769 171 475ft 0kts
26-Sep-20 09:11 47.340171 -122.103769 171 475ft 0kts
26-Sep-20 09:12 47.340171 -122.103769 171 475ft 0kts
26-Sep-20 09:13 47.340171 -122.103769 171 475ft 0kts
26-Sep-20 09:14 47.341509 -122.104240 276 475ft 1kts
26-Sep-20 09:15 47.341507 -122.104262 261 475ft 0kts
26-Sep-20 09:16 47.341307 -122.104528 171 475ft 0kts
26-Sep-20 09:17 47.320451 -122.098789 171 932ft 131kts
26-Sep-20 09:18 47.304462 -122.052049 77 1969ft 166kts
26-Sep-20 09:19 47.325738 -121.993742 35 2971ft 169kts
26-Sep-20 09:20 47.369248 -121.979597 355 3964ft 166kts
26-Sep-20 09:21 47.416881 -121.981661 355 4514ft 186kts
26-Sep-20 09:22 47.471168 -121.983711 356 4500ft 200kts
26-Sep-20 09:23 47.527379 -121.985218 356 4500ft 202kts
26-Sep-20 09:24 47.583584 -121.986722 356 4500ft 202kts
26-Sep-20 09:25 47.639065 -121.996582 344 4500ft 200kts
26-Sep-20 09:26 47.693494 -122.014605 344 4500ft 200kts
26-Sep-20 09:27 47.748172 -122.032734 344 4500ft 201kts
26-Sep-20 09:28 47.803020 -122.051002 344 4500ft 203kts
26-Sep-20 09:29 47.858437 -122.069624 344 4501ft 204kts
26-Sep-20 09:30 47.913970 -122.088549 344 4501ft 205kts
26-Sep-20 09:31 47.967938 -122.112237 307 4487ft 198kts
26-Sep-20 09:32 47.994870 -122.187145 293 3737ft 216kts
26-Sep-20 09:33 48.017483 -122.271241 288 2872ft 217kts
26-Sep-20 09:34 48.039338 -122.354285 288 2499ft 207kts
26-Sep-20 09:35 48.054418 -122.438626 268 1899ft 211kts
26-Sep-20 09:36 48.056810 -122.524942 272 1854ft 204kts
26-Sep-20 09:37 48.063893 -122.609316 278 1866ft 206kts
26-Sep-20 09:38 48.076769 -122.692481 285 2002ft 204kts
26-Sep-20 09:39 48.094962 -122.774184 285 2011ft 208kts
26-Sep-20 09:40 48.112672 -122.852857 285 2005ft 189kts
26-Sep-20 09:41 48.129256 -122.926204 286 2002ft 185kts
26-Sep-20 09:42 48.143309 -122.999743 293 1991ft 181kts
26-Sep-20 09:43 48.162797 -123.068039 296 1982ft 175kts
26-Sep-20 09:44 48.195585 -123.119296 337 1975ft 170kts
26-Sep-20 09:45 48.240279 -123.124975 20 1973ft 169kts
26-Sep-20 09:46 48.286045 -123.102895 19 1981ft 176kts
26-Sep-20 09:47 48.333691 -123.081287 18 2008ft 180kts
26-Sep-20 09:48 48.382060 -123.059425 18 2013ft 182kts
26-Sep-20 09:49 48.430718 -123.037348 18 2012ft 183kts
26-Sep-20 09:50 48.479373 -123.015111 20 2008ft 182kts
26-Sep-20 09:51 48.522219 -122.975287 35 2007ft 180kts
26-Sep-20 09:52 48.562808 -122.933194 44 2002ft 167kts
26-Sep-20 09:53 48.594973 -122.886216 48 2002ft 157kts
26-Sep-20 09:54 48.625378 -122.839150 49 2001ft 156kts
26-Sep-20 09:55 48.656384 -122.792640 37 2007ft 158kts
26-Sep-20 09:56 48.693274 -122.814067 316 2000ft 155kts
26-Sep-20 09:57 48.731608 -122.844135 353 1647ft 159kts
26-Sep-20 09:58 48.768341 -122.865201 274 1237ft 147kts
26-Sep-20 09:59 48.750110 -122.912679 203 1099ft 125kts
26-Sep-20 10:00 48.720083 -122.910526 179 122ft 87kts
26-Sep-20 10:01 48.705104 -122.910622 180 27ft 16kts
26-Sep-20 10:02 48.705116 -122.909691 357 27ft 0kts
26-Sep-20 10:03 48.705116 -122.909691 357 27ft 0kts

Navigation Log

Ident Type
Flight plan parsing failed, navigation log unavailable